createdAt,value
2018-03-17T00:01:47.466Z,1.80
2018-03-17T00:04:17.913Z,1.80
2018-03-17T00:06:47.798Z,1.70
2018-03-17T00:09:17.091Z,1.70
2018-03-17T00:11:46.174Z,1.70
2018-03-17T00:14:15.277Z,1.70
2018-03-17T00:16:44.019Z,1.70
2018-03-17T00:19:13.033Z,1.80
2018-03-17T00:21:42.594Z,1.70
2018-03-17T00:24:13.649Z,1.70
2018-03-17T00:26:43.104Z,1.70
2018-03-17T00:29:11.444Z,1.70
2018-03-17T00:31:39.624Z,1.70
2018-03-17T00:34:09.608Z,1.70
2018-03-17T00:36:37.748Z,1.70
2018-03-17T00:39:05.689Z,1.70
2018-03-17T00:41:33.776Z,1.70
2018-03-17T00:44:02.615Z,1.70
2018-03-17T00:46:31.546Z,1.60
2018-03-17T00:48:59.859Z,1.60
2018-03-17T00:51:28.173Z,1.50
2018-03-17T00:53:56.446Z,1.60
2018-03-17T00:56:25.008Z,1.70
2018-03-17T00:58:53.442Z,1.60
2018-03-17T01:01:21.747Z,1.60
2018-03-17T01:03:49.885Z,1.60
2018-03-17T01:06:18.032Z,1.60
2018-03-17T01:08:46.312Z,1.60
2018-03-17T01:11:15.407Z,1.60
2018-03-17T01:13:45.298Z,1.50
2018-03-17T01:16:13.458Z,1.50
2018-03-17T01:18:42.072Z,1.50
2018-03-17T01:21:09.961Z,1.60
2018-03-17T01:23:37.883Z,1.50
2018-03-17T01:26:05.774Z,1.50
2018-03-17T01:28:35.911Z,1.50
2018-03-17T01:31:04.463Z,1.40
2018-03-17T01:33:32.870Z,1.40
2018-03-17T01:36:01.232Z,1.40
2018-03-17T01:38:29.643Z,1.30
2018-03-17T01:40:57.841Z,1.30
2018-03-17T01:43:26.288Z,1.40
2018-03-17T01:45:54.548Z,1.30
2018-03-17T01:48:23.059Z,1.40
2018-03-17T01:50:52.420Z,1.30
2018-03-17T01:53:21.604Z,1.20
2018-03-17T01:55:51.069Z,1.30
2018-03-17T01:58:20.662Z,1.20
2018-03-17T02:00:49.503Z,1.20
2018-03-17T02:03:17.951Z,1.10
2018-03-17T02:05:45.882Z,1.20
2018-03-17T02:08:13.831Z,1.20
2018-03-17T02:10:41.716Z,1.20
2018-03-17T02:13:09.661Z,1.10
2018-03-17T02:15:37.560Z,1.10
2018-03-17T02:18:05.550Z,1.10
2018-03-17T02:20:33.446Z,1.10
2018-03-17T02:23:04.734Z,1.00
2018-03-17T02:25:32.629Z,1.00
2018-03-17T02:28:00.579Z,0.80
2018-03-17T02:30:28.463Z,0.80
2018-03-17T02:32:56.413Z,0.80
2018-03-17T02:35:24.311Z,0.70
2018-03-17T02:37:52.258Z,0.70
2018-03-17T02:40:20.159Z,0.70
2018-03-17T02:42:48.106Z,0.70
2018-03-17T02:45:16.010Z,0.60
2018-03-17T02:47:43.944Z,0.60
2018-03-17T02:50:11.856Z,0.60
2018-03-17T02:52:40.045Z,0.50
2018-03-17T02:55:07.917Z,0.60
2018-03-17T02:57:35.853Z,0.60
2018-03-17T03:00:04.576Z,0.50
2018-03-17T03:02:32.519Z,0.50
2018-03-17T03:05:00.417Z,0.50
2018-03-17T03:07:28.360Z,0.40
2018-03-17T03:09:56.242Z,0.40
2018-03-17T03:12:24.208Z,0.50
2018-03-17T03:14:52.103Z,0.50
2018-03-17T03:17:20.044Z,0.40
2018-03-17T03:19:47.926Z,0.40
2018-03-17T03:22:16.239Z,0.40
2018-03-17T03:24:44.128Z,0.50
2018-03-17T03:27:12.070Z,0.40
2018-03-17T03:29:39.952Z,0.40
2018-03-17T03:32:07.860Z,0.50
2018-03-17T03:34:36.558Z,0.50
2018-03-17T03:37:04.442Z,0.50
2018-03-17T03:39:32.387Z,0.60
2018-03-17T03:42:00.255Z,0.50
2018-03-17T03:44:28.191Z,0.50
2018-03-17T03:46:56.070Z,0.50
2018-03-17T03:49:23.997Z,0.50
2018-03-17T03:51:55.895Z,0.30
2018-03-17T03:54:23.823Z,0.30
2018-03-17T03:56:51.692Z,0.20
2018-03-17T03:59:19.628Z,0.20
2018-03-17T04:01:47.508Z,0.10
2018-03-17T04:04:15.445Z,0.10
2018-03-17T04:06:43.312Z,0.10
2018-03-17T04:09:11.240Z,0.10
2018-03-17T04:11:39.110Z,0.00
2018-03-17T04:14:07.039Z,0.10
2018-03-17T04:16:34.928Z,0.00
2018-03-17T04:19:02.852Z,0.10
2018-03-17T04:21:30.984Z,0.10
2018-03-17T04:23:58.909Z,0.10
2018-03-17T04:26:26.772Z,0.00
2018-03-17T04:28:59.224Z,0.00
2018-03-17T04:31:27.105Z,0.00
2018-03-17T04:33:55.068Z,0.00
2018-03-17T04:36:22.945Z,-0.10
2018-03-17T04:38:50.860Z,-0.10
2018-03-17T04:41:18.736Z,-0.10
2018-03-17T04:43:46.660Z,-0.10
2018-03-17T04:46:15.433Z,-0.20
2018-03-17T04:48:43.359Z,-0.30
2018-03-17T04:51:11.468Z,-0.20
2018-03-17T04:53:39.392Z,-0.20
2018-03-17T04:56:07.291Z,-0.20
2018-03-17T04:58:35.220Z,-0.30
2018-03-17T05:01:03.116Z,-0.30
2018-03-17T05:03:31.101Z,-0.30
2018-03-17T05:05:58.982Z,-0.40
2018-03-17T05:08:26.912Z,-0.40
2018-03-17T05:10:54.783Z,-0.30
2018-03-17T05:13:22.707Z,-0.30
2018-03-17T05:15:50.640Z,-0.30
2018-03-17T05:18:18.567Z,-0.30
2018-03-17T05:20:46.452Z,-0.30
2018-03-17T05:23:14.381Z,-0.20
2018-03-17T05:25:42.283Z,-0.20
2018-03-17T05:28:10.206Z,-0.30
2018-03-17T05:30:38.079Z,-0.20
2018-03-17T05:33:06.000Z,-0.30
2018-03-17T05:35:33.906Z,-0.30
2018-03-17T05:38:01.888Z,-0.30
2018-03-17T05:40:29.805Z,-0.40
2018-03-17T05:42:57.959Z,-0.30
2018-03-17T05:45:26.640Z,-0.40
2018-03-17T05:47:55.346Z,-0.30
2018-03-17T05:50:24.155Z,-0.40
2018-03-17T05:52:52.066Z,-0.30
2018-03-17T05:55:19.935Z,-0.30
2018-03-17T05:57:47.859Z,-0.30
2018-03-17T06:00:15.806Z,-0.30
2018-03-17T06:02:43.752Z,-0.40
2018-03-17T06:05:15.545Z,-0.40
2018-03-17T06:07:47.671Z,-0.40
2018-03-17T06:10:19.209Z,-0.30
2018-03-17T06:12:51.567Z,-0.30
2018-03-17T06:15:24.423Z,-0.30
2018-03-17T06:17:56.646Z,-0.30
2018-03-17T06:20:28.155Z,-0.20
2018-03-17T06:22:59.962Z,-0.20
2018-03-17T06:25:31.585Z,-0.10
2018-03-17T06:28:03.202Z,-0.10
2018-03-17T06:30:35.724Z,-0.10
2018-03-17T06:33:08.691Z,-0.30
2018-03-17T06:35:41.320Z,-0.40
2018-03-17T06:38:13.491Z,-0.40
2018-03-17T06:40:45.602Z,-0.40
2018-03-17T06:43:20.003Z,-0.50
2018-03-17T06:45:51.948Z,-0.50
2018-03-17T06:48:25.380Z,-0.50
2018-03-17T06:50:56.998Z,-0.50
2018-03-17T06:53:30.217Z,-0.60
2018-03-17T06:56:01.640Z,-0.50
2018-03-17T06:58:33.087Z,-0.50
2018-03-17T07:01:04.963Z,-0.60
2018-03-17T07:03:38.153Z,-0.60
2018-03-17T07:06:09.321Z,-0.60
2018-03-17T07:08:41.167Z,-0.60
2018-03-17T07:11:12.711Z,-0.80
2018-03-17T07:13:44.482Z,-0.80
2018-03-17T07:16:17.076Z,-0.70
2018-03-17T07:18:49.182Z,-0.50
2018-03-17T07:21:21.006Z,-0.60
2018-03-17T07:23:53.302Z,-0.80
2018-03-17T07:26:25.524Z,-0.80
2018-03-17T07:28:57.378Z,-0.80
2018-03-17T07:31:30.661Z,-0.80
2018-03-17T07:34:02.711Z,-0.80
2018-03-17T07:36:34.960Z,-0.70
2018-03-17T07:39:07.329Z,-0.60
2018-03-17T07:41:39.008Z,-0.50
2018-03-17T07:44:07.139Z,-0.50
2018-03-17T07:46:35.064Z,-0.50
2018-03-17T07:49:02.986Z,-0.60
2018-03-17T07:51:30.865Z,-0.50
2018-03-17T07:54:03.125Z,-0.60
2018-03-17T07:56:31.029Z,-0.60
2018-03-17T07:59:02.097Z,-0.50
2018-03-17T08:01:33.824Z,-0.70
2018-03-17T08:04:05.976Z,-0.80
2018-03-17T08:06:37.209Z,-1.00
2018-03-17T08:09:09.376Z,-0.70
2018-03-17T08:11:37.431Z,-0.80
2018-03-17T08:14:05.364Z,-0.60
2018-03-17T08:16:33.262Z,-0.80
2018-03-17T08:19:01.184Z,-0.80
2018-03-17T08:21:29.191Z,-0.80
2018-03-17T08:23:57.111Z,-0.70
2018-03-17T08:26:24.989Z,-0.70
2018-03-17T08:28:52.909Z,-0.90
2018-03-17T08:31:20.851Z,-0.80
2018-03-17T08:33:48.797Z,-0.70
2018-03-17T08:36:16.688Z,-0.70
2018-03-17T08:38:44.620Z,-0.80
2018-03-17T08:41:12.498Z,-0.60
2018-03-17T08:43:44.154Z,-0.50
2018-03-17T08:46:15.522Z,-0.50
2018-03-17T08:48:46.831Z,-0.30
2018-03-17T08:51:17.873Z,-0.20
2018-03-17T08:53:45.964Z,-0.40
2018-03-17T08:56:14.706Z,-0.50
2018-03-17T08:58:46.937Z,-0.30
2018-03-17T09:01:15.232Z,-0.10
2018-03-17T09:03:44.046Z,-0.30
2018-03-17T09:06:12.002Z,-0.50
2018-03-17T09:08:40.442Z,-0.60
2018-03-17T09:11:10.849Z,-0.50
2018-03-17T09:13:38.798Z,-0.40
2018-03-17T09:16:06.741Z,-0.30
2018-03-17T09:18:34.668Z,-0.60
2018-03-17T09:21:06.268Z,-0.90
2018-03-17T09:23:34.226Z,-0.80
2018-03-17T09:26:02.141Z,-1.10
2018-03-17T09:28:31.259Z,-0.90
2018-03-17T09:30:59.175Z,-0.90
2018-03-17T09:33:27.055Z,-0.80
2018-03-17T09:35:57.030Z,-0.80
2018-03-17T09:38:24.934Z,-0.80
2018-03-17T09:40:52.884Z,-1.00
2018-03-17T09:43:20.753Z,-1.20
2018-03-17T09:45:48.685Z,-1.10
2018-03-17T09:48:16.620Z,-1.00
2018-03-17T09:50:44.542Z,-1.00
2018-03-17T09:53:12.428Z,-1.00
2018-03-17T09:55:40.466Z,-1.00
2018-03-17T09:58:09.620Z,-1.10
2018-03-17T10:00:37.553Z,-1.00
2018-03-17T10:03:05.442Z,-0.90
2018-03-17T10:05:33.359Z,-0.80
2018-03-17T10:08:01.241Z,-0.70
2018-03-17T10:10:29.186Z,-0.60
2018-03-17T10:13:00.418Z,-0.70
2018-03-17T10:15:28.376Z,-0.90
2018-03-17T10:17:56.280Z,-1.10
2018-03-17T10:20:24.209Z,-1.10
2018-03-17T10:22:52.096Z,-0.90
2018-03-17T10:25:20.081Z,-1.10
2018-03-17T10:27:47.957Z,-1.00
2018-03-17T10:30:15.909Z,-0.90
2018-03-17T10:32:43.824Z,-1.10
2018-03-17T10:35:11.749Z,-1.10
2018-03-17T10:37:39.637Z,-1.00
2018-03-17T10:40:07.590Z,-1.10
2018-03-17T10:42:38.856Z,-1.10
2018-03-17T10:45:06.896Z,-1.10
2018-03-17T10:47:34.768Z,-0.90
2018-03-17T10:50:02.718Z,-1.00
2018-03-17T10:52:30.658Z,-1.20
2018-03-17T10:54:58.609Z,-1.10
2018-03-17T10:57:26.559Z,-1.20
2018-03-17T10:59:55.362Z,-1.20
2018-03-17T11:02:23.300Z,-1.30
2018-03-17T11:04:51.230Z,-1.30
2018-03-17T11:07:19.109Z,-1.30
2018-03-17T11:09:47.051Z,-1.30
2018-03-17T11:12:14.930Z,-1.30
2018-03-17T11:14:42.873Z,-1.30
2018-03-17T11:17:10.766Z,-1.40
2018-03-17T11:19:38.701Z,-1.30
2018-03-17T11:22:07.389Z,-1.20
2018-03-17T11:24:35.309Z,-1.20
2018-03-17T11:27:03.266Z,-1.10
2018-03-17T11:29:31.207Z,-1.40
2018-03-17T11:32:04.001Z,-1.40
2018-03-17T11:34:31.949Z,-1.40
2018-03-17T11:37:00.607Z,-1.50
2018-03-17T11:39:28.540Z,-1.60
2018-03-17T11:41:56.468Z,-1.50
2018-03-17T11:44:24.406Z,-1.50
2018-03-17T11:46:52.357Z,-1.60
2018-03-17T11:49:20.309Z,-1.50
2018-03-17T11:51:48.199Z,-1.50
2018-03-17T11:54:16.154Z,-1.30
2018-03-17T11:56:44.057Z,-1.40
2018-03-17T11:59:12.018Z,-1.50
2018-03-17T12:01:39.907Z,-1.70
2018-03-17T12:04:07.874Z,-1.70
2018-03-17T12:06:35.805Z,-1.70
2018-03-17T12:09:03.844Z,-1.60
2018-03-17T12:11:32.557Z,-1.60
2018-03-17T12:14:00.442Z,-1.60
2018-03-17T12:16:28.384Z,-1.50
2018-03-17T12:18:56.274Z,-1.30
2018-03-17T12:21:24.243Z,-1.30
2018-03-17T12:23:52.122Z,-1.40
2018-03-17T12:26:20.101Z,-1.50
2018-03-17T12:28:47.997Z,-1.40
2018-03-17T12:31:17.165Z,-1.50
2018-03-17T12:33:45.053Z,-1.60
2018-03-17T12:36:13.009Z,-1.40
2018-03-17T12:38:40.910Z,-1.30
2018-03-17T12:41:08.866Z,-1.30
2018-03-17T12:43:36.784Z,-1.40
2018-03-17T12:46:04.692Z,-1.60
2018-03-17T12:48:32.650Z,-1.50
2018-03-17T12:51:00.565Z,-1.60
2018-03-17T12:53:28.514Z,-1.40
2018-03-17T12:55:56.487Z,-1.40
2018-03-17T12:58:24.391Z,-1.70
2018-03-17T13:00:52.336Z,-1.60
2018-03-17T13:03:20.342Z,-1.50
2018-03-17T13:05:48.272Z,-1.50
2018-03-17T13:08:16.156Z,-1.40
2018-03-17T13:10:44.084Z,-1.40
2018-03-17T13:13:11.962Z,-1.10
2018-03-17T13:15:39.903Z,-1.20
2018-03-17T13:18:07.816Z,-1.30
2018-03-17T13:20:35.794Z,-1.40
2018-03-17T13:23:24.464Z,-1.60
2018-03-17T13:25:52.410Z,-1.60
2018-03-17T13:28:37.243Z,-1.50
2018-03-17T13:31:05.188Z,-1.60
2018-03-17T13:33:33.104Z,-1.60
2018-03-17T13:39:05.179Z,-1.60
2018-03-17T13:41:33.243Z,-1.60
2018-03-17T13:44:02.879Z,-1.70
2018-03-17T13:46:34.345Z,-1.70
2018-03-17T13:49:02.638Z,-1.70
2018-03-17T13:51:30.683Z,-1.80
2018-03-17T13:53:59.498Z,-1.60
2018-03-17T13:56:27.688Z,-1.70
2018-03-17T13:58:58.725Z,-1.60
2018-03-17T14:01:27.025Z,-1.70
2018-03-17T14:03:55.285Z,-1.70
2018-03-17T14:06:23.482Z,-1.70
2018-03-17T14:08:51.523Z,-1.60
2018-03-17T14:11:21.900Z,-1.60
2018-03-17T14:13:52.552Z,-1.60
2018-03-17T14:16:20.792Z,-1.70
2018-03-17T14:18:48.847Z,-1.60
2018-03-17T14:21:18.158Z,-1.70
2018-03-17T14:23:46.917Z,-1.70
2018-03-17T14:26:15.160Z,-1.60
2018-03-17T14:28:43.226Z,-1.70
2018-03-17T14:31:11.371Z,-1.70
2018-03-17T14:33:39.539Z,-1.70
2018-03-17T14:36:08.394Z,-1.40
2018-03-17T14:38:36.648Z,-1.40
2018-03-17T14:41:07.091Z,-1.60
2018-03-17T14:43:35.114Z,-1.60
2018-03-17T14:46:03.527Z,-1.70
2018-03-17T14:48:35.001Z,-1.90
2018-03-17T14:51:08.119Z,-1.70
2018-03-17T14:53:38.843Z,-1.70
2018-03-17T14:56:11.302Z,-1.80
2018-03-17T14:58:42.360Z,-1.70
2018-03-17T15:01:14.641Z,-1.80
2018-03-17T15:03:46.434Z,-1.70
2018-03-17T15:06:18.318Z,-1.70
2018-03-17T15:08:50.109Z,-1.80
2018-03-17T15:11:22.019Z,-1.80
2018-03-17T15:13:50.479Z,-1.70
2018-03-17T15:16:23.162Z,-1.60
2018-03-17T15:18:55.092Z,-1.80
2018-03-17T15:21:28.828Z,-1.70
2018-03-17T15:24:00.254Z,-1.70
2018-03-17T15:26:32.508Z,-1.80
2018-03-17T15:29:05.486Z,-1.80
2018-03-17T15:31:37.425Z,-1.80
2018-03-17T15:34:10.352Z,-1.70
2018-03-17T15:36:42.282Z,-1.80
2018-03-17T15:39:11.735Z,-1.90
2018-03-17T15:41:43.577Z,-2.00
2018-03-17T15:44:16.677Z,-2.10
2018-03-17T15:46:48.447Z,-2.10
2018-03-17T15:49:20.228Z,-2.10
2018-03-17T15:51:48.894Z,-2.00
2018-03-17T15:54:16.954Z,-2.00
2018-03-17T15:56:45.022Z,-2.10
2018-03-17T15:59:14.010Z,-2.00
2018-03-17T16:01:42.865Z,-2.10
2018-03-17T16:04:12.658Z,-2.10
2018-03-17T16:06:40.808Z,-2.20
2018-03-17T16:09:08.897Z,-2.20
2018-03-17T16:11:37.128Z,-2.20
2018-03-17T16:14:05.275Z,-2.30
2018-03-17T16:16:33.624Z,-2.40
2018-03-17T16:19:01.635Z,-2.40
2018-03-17T16:21:31.232Z,-2.30
2018-03-17T16:23:59.432Z,-2.40
2018-03-17T16:26:27.765Z,-2.50
2018-03-17T16:28:55.902Z,-2.40
2018-03-17T16:31:24.014Z,-2.40
2018-03-17T16:33:52.175Z,-2.30
2018-03-17T16:36:20.274Z,-2.30
2018-03-17T16:38:48.209Z,-2.30
2018-03-17T16:41:16.411Z,-2.30
2018-03-17T16:43:44.475Z,-2.40
2018-03-17T16:46:12.724Z,-2.30
2018-03-17T16:48:41.852Z,-2.40
2018-03-17T16:51:13.712Z,-2.40
2018-03-17T16:53:42.070Z,-2.30
2018-03-17T16:56:10.322Z,-2.40
2018-03-17T16:58:38.635Z,-2.50
2018-03-17T17:01:06.763Z,-2.50
2018-03-17T17:03:34.840Z,-2.50
2018-03-17T17:06:03.722Z,-2.60
2018-03-17T17:08:31.820Z,-2.60
2018-03-17T17:10:59.994Z,-2.60
2018-03-17T17:13:29.790Z,-2.50
2018-03-17T17:15:58.597Z,-2.50
2018-03-17T17:18:28.559Z,-2.50
2018-03-17T17:20:56.886Z,-2.40
2018-03-17T17:23:29.011Z,-2.50
2018-03-17T17:25:59.242Z,-2.50
2018-03-17T17:28:33.014Z,-2.60
2018-03-17T17:31:01.154Z,-2.60
2018-03-17T17:33:30.291Z,-2.70
2018-03-17T17:35:58.711Z,-2.70
2018-03-17T17:38:26.855Z,-2.70
2018-03-17T17:40:55.771Z,-2.70
2018-03-17T17:43:23.755Z,-2.80
2018-03-17T17:45:52.781Z,-2.80
2018-03-17T17:48:20.794Z,-2.70
2018-03-17T17:50:49.074Z,-2.70
2018-03-17T17:53:17.513Z,-2.70
2018-03-17T17:55:46.010Z,-2.70
2018-03-17T17:58:14.303Z,-2.80
2018-03-17T18:00:42.340Z,-2.80
2018-03-17T18:03:11.061Z,-2.80
2018-03-17T18:05:39.063Z,-2.80
2018-03-17T18:08:07.242Z,-2.80
2018-03-17T18:10:35.396Z,-2.70
2018-03-17T18:13:03.469Z,-2.80
2018-03-17T18:15:31.593Z,-2.90
2018-03-17T18:17:59.689Z,-2.80
2018-03-17T18:20:29.590Z,-2.90
2018-03-17T18:23:01.570Z,-2.90
2018-03-17T18:25:29.763Z,-2.80
2018-03-17T18:27:57.861Z,-2.80
2018-03-17T18:30:25.925Z,-2.80
2018-03-17T18:32:54.026Z,-2.80
2018-03-17T18:35:22.785Z,-2.70
2018-03-17T18:37:51.005Z,-2.70
2018-03-17T18:40:19.123Z,-2.70
2018-03-17T18:42:47.212Z,-2.70
2018-03-17T18:45:15.236Z,-2.70
2018-03-17T18:47:43.395Z,-2.70
2018-03-17T18:50:12.194Z,-2.70
2018-03-17T18:52:40.419Z,-2.70
2018-03-17T18:55:08.570Z,-2.70
2018-03-17T18:57:36.573Z,-2.80
2018-03-17T19:00:04.822Z,-2.80
2018-03-17T19:02:33.162Z,-2.70
2018-03-17T19:05:01.239Z,-2.70
2018-03-17T19:07:29.328Z,-2.70
2018-03-17T19:09:57.347Z,-2.70
2018-03-17T19:12:25.403Z,-2.70
2018-03-17T19:14:53.700Z,-2.70
2018-03-17T19:17:25.171Z,-2.70
2018-03-17T19:19:53.320Z,-2.70
2018-03-17T19:22:21.442Z,-2.70
2018-03-17T19:24:49.415Z,-2.70
2018-03-17T19:27:17.739Z,-2.70
2018-03-17T19:29:45.658Z,-2.70
2018-03-17T19:32:14.811Z,-2.80
2018-03-17T19:34:42.733Z,-2.80
2018-03-17T19:37:10.711Z,-2.80
2018-03-17T19:39:47.197Z,-2.80
2018-03-17T19:42:19.342Z,-2.70
2018-03-17T19:44:48.166Z,-2.60
2018-03-17T19:47:16.147Z,-2.70
2018-03-17T19:49:44.084Z,-2.60
2018-03-17T19:52:12.028Z,-2.60
2018-03-17T19:54:40.722Z,-2.60
2018-03-17T19:57:08.762Z,-2.60
2018-03-17T19:59:39.503Z,-2.50
2018-03-17T20:02:09.800Z,-2.50
2018-03-17T20:04:39.140Z,-2.80
2018-03-17T20:07:08.120Z,-2.80
2018-03-17T20:09:37.329Z,-2.70
2018-03-17T20:12:05.837Z,-2.70
2018-03-17T20:14:34.812Z,-2.70
2018-03-17T20:17:03.316Z,-2.60
2018-03-17T20:19:33.410Z,-2.60
2018-03-17T20:22:06.341Z,-2.70
2018-03-17T20:24:35.270Z,-2.60
2018-03-17T20:27:04.037Z,-2.70
2018-03-17T20:29:32.721Z,-2.60
2018-03-17T20:32:01.193Z,-2.50
2018-03-17T20:34:30.267Z,-2.40
2018-03-17T20:36:59.786Z,-2.50
2018-03-17T20:39:28.463Z,-2.60
2018-03-17T20:41:57.780Z,-2.60
2018-03-17T20:44:26.189Z,-2.60
2018-03-17T20:46:55.132Z,-2.50
2018-03-17T20:49:23.351Z,-2.50
2018-03-17T20:51:52.252Z,-2.50
2018-03-17T20:54:21.136Z,-2.40
2018-03-17T20:56:49.967Z,-2.40
2018-03-17T20:59:19.767Z,-2.40
2018-03-17T21:01:48.449Z,-2.40
2018-03-17T21:04:16.905Z,-2.40
2018-03-17T21:06:46.051Z,-2.50
2018-03-17T21:09:15.342Z,-2.60
2018-03-17T21:11:44.828Z,-2.60
2018-03-17T21:14:13.729Z,-2.50
2018-03-17T21:16:42.913Z,-2.30
2018-03-17T21:19:11.982Z,-2.40
2018-03-17T21:21:40.385Z,-2.30
2018-03-17T21:24:08.960Z,-2.40
2018-03-17T21:26:37.035Z,-2.40
2018-03-17T21:29:04.946Z,-2.40
2018-03-17T21:31:37.566Z,-2.40
2018-03-17T21:34:06.339Z,-2.50
2018-03-17T21:36:34.255Z,-2.50
2018-03-17T21:39:02.216Z,-2.50
2018-03-17T21:41:30.163Z,-2.50
2018-03-17T21:43:58.063Z,-2.50
2018-03-17T21:46:28.534Z,-2.50
2018-03-17T21:48:57.202Z,-2.60
2018-03-17T21:51:25.280Z,-2.60
2018-03-17T21:53:53.216Z,-2.50
2018-03-17T21:56:21.136Z,-2.50
2018-03-17T21:58:53.523Z,-2.50
2018-03-17T22:01:21.558Z,-2.50
2018-03-17T22:03:49.496Z,-2.60
2018-03-17T22:06:17.372Z,-2.50
2018-03-17T22:08:46.876Z,-2.50
2018-03-17T22:11:15.901Z,-2.50
2018-03-17T22:13:44.654Z,-2.50
2018-03-17T22:16:13.449Z,-2.50
2018-03-17T22:18:41.719Z,-2.50
2018-03-17T22:21:10.125Z,-2.50
2018-03-17T22:23:38.061Z,-2.50
2018-03-17T22:26:06.385Z,-2.50
2018-03-17T22:28:34.312Z,-2.50
2018-03-17T22:31:02.194Z,-2.50
2018-03-17T22:33:30.351Z,-2.50
2018-03-17T22:36:02.110Z,-2.50
2018-03-17T22:38:30.249Z,-2.50
2018-03-17T22:40:58.136Z,-2.50
2018-03-17T22:43:26.100Z,-2.50
2018-03-17T22:45:54.054Z,-2.50
2018-03-17T22:48:22.133Z,-2.60
2018-03-17T22:50:50.044Z,-2.50
2018-03-17T22:53:18.058Z,-2.50
2018-03-17T22:55:46.757Z,-2.50
2018-03-17T22:58:15.410Z,-2.50
2018-03-17T23:00:43.381Z,-2.50
2018-03-17T23:03:11.381Z,-2.60
2018-03-17T23:05:39.355Z,-2.60
2018-03-17T23:08:08.016Z,-2.50
2018-03-17T23:10:35.962Z,-2.60
2018-03-17T23:13:03.859Z,-2.50
2018-03-17T23:15:31.869Z,-2.50
2018-03-17T23:17:59.766Z,-2.50
2018-03-17T23:20:27.710Z,-2.50
2018-03-17T23:22:56.449Z,-2.40
2018-03-17T23:25:24.372Z,-2.50
2018-03-17T23:27:52.248Z,-2.50
2018-03-17T23:30:20.239Z,-2.40
2018-03-17T23:32:48.152Z,-2.40
2018-03-17T23:35:16.846Z,-2.50
2018-03-17T23:37:44.717Z,-2.50
2018-03-17T23:40:12.642Z,-2.40
2018-03-17T23:42:40.576Z,-2.50
2018-03-17T23:45:08.501Z,-2.50
2018-03-17T23:47:37.308Z,-2.50
2018-03-17T23:50:05.258Z,-2.50
2018-03-17T23:52:33.488Z,-2.50
2018-03-17T23:55:01.426Z,-2.50
2018-03-17T23:57:29.364Z,-2.50
2018-03-17T23:59:57.305Z,-2.50
